Time,TemperatureF,DewpointF,PressureIn,WindDirection,WindDirectionDegrees,WindSpeedMPH,WindSpeedGustMPH,Humidity,HourlyPrecipIn,Conditions,Clouds,dailyrainin,SoftwareType,DateUTC
2013-09-23 00:05:00,61.0,57.0,29.95,NW,317,0.0,0.0,87,0.00,,,0.00,,2013-09-23 04:05:00,
2013-09-23 00:14:00,61.0,57.0,29.95,NW,317,0.0,0.0,87,0.00,,,0.00,,2013-09-23 04:14:00,
2013-09-23 00:24:00,61.0,58.0,29.95,NW,317,0.0,0.0,89,0.00,,,0.00,,2013-09-23 04:24:00,
2013-09-23 00:33:00,61.0,58.0,29.95,NW,317,0.0,0.0,89,0.00,,,0.00,,2013-09-23 04:33:00,
2013-09-23 00:43:00,61.0,58.0,29.95,NW,317,0.0,0.0,89,0.00,,,0.00,,2013-09-23 04:43:00,
2013-09-23 00:54:00,60.0,57.0,29.96,NW,317,0.0,0.0,91,0.00,,,0.00,,2013-09-23 04:54:00,
2013-09-23 01:03:00,60.0,57.0,29.96,NW,317,0.0,0.0,91,0.00,,,0.00,,2013-09-23 05:03:00,
2013-09-23 01:12:00,60.0,57.0,29.96,NW,317,0.0,0.0,91,0.00,,,0.00,,2013-09-23 05:12:00,
2013-09-23 01:23:00,60.0,58.0,29.96,NW,317,0.0,0.0,92,0.00,,,0.00,,2013-09-23 05:23:00,
2013-09-23 01:34:00,60.0,58.0,29.96,NW,317,0.0,0.0,92,0.00,,,0.00,,2013-09-23 05:34:00,
2013-09-23 01:43:00,60.0,58.0,29.96,NW,317,0.0,0.0,92,0.00,,,0.00,,2013-09-23 05:43:00,
2013-09-23 01:53:00,60.0,58.0,29.96,NW,317,0.0,0.0,93,0.00,,,0.00,,2013-09-23 05:53:00,
2013-09-23 02:02:00,60.0,58.0,29.96,NW,317,0.0,0.0,93,0.00,,,0.00,,2013-09-23 06:02:00,
2013-09-23 02:13:00,60.0,58.0,29.96,NW,317,0.0,0.0,93,0.00,,,0.00,,2013-09-23 06:13:00,
2013-09-23 02:22:00,59.0,57.0,29.96,NW,317,0.0,0.0,94,0.00,,,0.00,,2013-09-23 06:22:00,
2013-09-23 02:32:00,59.0,57.0,29.96,NW,317,0.0,0.0,94,0.00,,,0.00,,2013-09-23 06:32:00,
2013-09-23 02:52:00,59.0,57.0,29.96,NW,317,0.0,0.0,94,0.00,,,0.00,,2013-09-23 06:52:00,
2013-09-23 03:01:00,59.0,57.0,29.96,NW,317,0.0,0.0,94,0.00,,,0.00,,2013-09-23 07:01:00,
2013-09-23 03:12:00,59.0,57.0,29.96,NW,317,0.0,0.0,94,0.00,,,0.00,,2013-09-23 07:12:00,
2013-09-23 03:22:00,59.0,57.0,29.96,NW,317,0.0,0.0,94,0.00,,,0.00,,2013-09-23 07:22:00,
2013-09-23 03:32:00,59.0,57.0,29.96,NW,317,0.0,0.0,94,0.00,,,0.00,,2013-09-23 07:32:00,
2013-09-23 03:52:00,58.0,57.0,29.97,NW,317,0.0,0.0,95,0.00,,,0.00,,2013-09-23 07:52:00,
2013-09-23 04:02:00,58.0,57.0,29.97,NW,317,0.0,0.0,95,0.00,,,0.00,,2013-09-23 08:02:00,
2013-09-23 04:11:00,58.0,57.0,29.97,NW,317,0.0,0.0,95,0.00,,,0.00,,2013-09-23 08:11:00,
2013-09-23 04:23:00,58.0,57.0,29.97,NW,317,0.0,0.0,95,0.00,,,0.00,,2013-09-23 08:23:00,
2013-09-23 04:32:00,58.0,57.0,29.97,NW,317,0.0,0.0,95,0.00,,,0.00,,2013-09-23 08:32:00,
2013-09-23 04:52:00,58.0,57.0,29.97,NW,317,0.0,0.0,96,0.00,,,0.00,,2013-09-23 08:52:00,
2013-09-23 05:02:00,58.0,57.0,29.97,NW,317,0.0,0.0,96,0.00,,,0.00,,2013-09-23 09:02:00,
2013-09-23 05:11:00,58.0,57.0,29.97,NW,317,0.0,0.0,96,0.00,,,0.00,,2013-09-23 09:11:00,
2013-09-23 05:22:00,58.0,57.0,29.97,NW,317,0.0,0.0,96,0.00,,,0.00,,2013-09-23 09:22:00,
2013-09-23 05:33:00,58.0,57.0,29.97,NW,317,0.0,0.0,96,0.00,,,0.00,,2013-09-23 09:33:00,
2013-09-23 05:53:00,58.0,57.0,29.98,NW,317,0.0,0.0,97,0.00,,,0.00,,2013-09-23 09:53:00,
2013-09-23 06:03:00,58.0,57.0,29.98,NW,317,0.0,0.0,97,0.00,,,0.00,,2013-09-23 10:03:00,
2013-09-23 06:23:00,58.0,57.0,30.00,NW,317,0.0,0.0,97,0.00,,,0.00,,2013-09-23 10:23:00,
2013-09-23 06:33:00,58.0,57.0,30.00,NW,317,0.0,0.0,97,0.00,,,0.00,,2013-09-23 10:33:00,
2013-09-23 06:53:00,58.0,57.0,30.01,NW,317,0.0,0.0,97,0.00,,,0.00,,2013-09-23 10:53:00,
2013-09-23 07:03:00,58.0,57.0,30.01,NW,317,0.0,0.0,97,0.00,,,0.00,,2013-09-23 11:03:00,
2013-09-23 07:12:00,58.0,57.0,30.01,NW,317,0.0,0.0,97,0.00,,,0.00,,2013-09-23 11:12:00,
2013-09-23 07:22:00,58.0,57.0,30.03,NW,317,0.0,0.0,97,0.00,,,0.00,,2013-09-23 11:22:00,
2013-09-23 07:33:00,58.0,57.0,30.03,NW,317,0.0,0.0,97,0.00,,,0.00,,2013-09-23 11:33:00,
2013-09-23 07:52:00,58.0,57.0,30.04,NW,317,0.0,0.0,98,0.00,,,0.00,,2013-09-23 11:52:00,
2013-09-23 08:02:00,58.0,57.0,30.04,NW,317,0.0,0.0,98,0.00,,,0.00,,2013-09-23 12:02:00,
2013-09-23 08:11:00,58.0,57.0,30.04,NW,317,0.0,0.0,98,0.00,,,0.00,,2013-09-23 12:11:00,
2013-09-23 08:22:00,58.0,57.0,30.05,NW,317,0.0,0.0,98,0.00,,,0.00,,2013-09-23 12:22:00,
2013-09-23 08:32:00,58.0,57.0,30.05,NW,317,0.0,0.0,98,0.00,,,0.00,,2013-09-23 12:32:00,
2013-09-23 08:52:00,59.0,58.0,30.05,NW,317,0.0,0.0,98,0.00,,,0.00,,2013-09-23 12:52:00,
2013-09-23 09:11:00,59.0,58.0,30.05,NW,317,0.0,0.0,98,0.00,,,0.00,,2013-09-23 13:11:00,
2013-09-23 09:22:00,61.0,60.0,30.06,NW,317,0.0,1.0,98,0.00,,,0.00,,2013-09-23 13:22:00,
2013-09-23 09:42:00,61.0,60.0,30.06,NW,317,0.0,1.0,98,0.00,,,0.00,,2013-09-23 13:42:00,
2013-09-23 09:52:00,65.0,61.0,30.07,ENE,76,1.0,5.0,87,0.00,,,0.00,,2013-09-23 13:52:00,
2013-09-23 10:01:00,65.0,61.0,30.07,ENE,76,1.0,5.0,87,0.00,,,0.00,,2013-09-23 14:01:00,
2013-09-23 10:12:00,65.0,61.0,30.07,ENE,76,1.0,5.0,87,0.00,,,0.00,,2013-09-23 14:12:00,
2013-09-23 10:22:00,69.0,62.0,30.06,ESE,102,0.0,3.0,79,0.00,,,0.00,,2013-09-23 14:22:00,
2013-09-23 10:32:00,69.0,62.0,30.06,ESE,102,0.0,3.0,79,0.00,,,0.00,,2013-09-23 14:32:00,
2013-09-23 10:43:00,69.0,62.0,30.06,ESE,102,0.0,3.0,79,0.00,,,0.00,,2013-09-23 14:43:00,
2013-09-23 10:52:00,71.0,62.0,30.07,ESE,117,1.0,5.0,73,0.00,,,0.00,,2013-09-23 14:52:00,
2013-09-23 11:02:00,71.0,62.0,30.07,ESE,117,1.0,5.0,73,0.00,,,0.00,,2013-09-23 15:02:00,
2013-09-23 11:12:00,71.0,62.0,30.07,ESE,117,1.0,5.0,73,0.00,,,0.00,,2013-09-23 15:12:00,
2013-09-23 11:22:00,73.0,63.0,30.07,ESE,105,0.0,8.0,71,0.00,,,0.00,,2013-09-23 15:22:00,
2013-09-23 11:33:00,73.0,63.0,30.07,ESE,105,0.0,8.0,71,0.00,,,0.00,,2013-09-23 15:33:00,
2013-09-23 11:43:00,73.0,63.0,30.07,ESE,105,0.0,8.0,71,0.00,,,0.00,,2013-09-23 15:43:00,
2013-09-23 11:54:00,75.0,62.0,30.07,East,96,2.0,7.0,64,0.00,,,0.00,,2013-09-23 15:54:00,
2013-09-23 12:03:00,77.0,63.0,30.07,ESE,114,0.0,9.0,63,0.00,,,0.00,,2013-09-23 16:03:00,
2013-09-23 12:04:00,75.0,62.0,30.07,East,96,2.0,7.0,64,0.00,,,0.00,,2013-09-23 16:04:00,
2013-09-23 12:12:00,75.0,62.0,30.07,East,96,2.0,7.0,64,0.00,,,0.00,,2013-09-23 16:12:00,
2013-09-23 12:24:00,77.0,63.0,30.07,ESE,114,0.0,9.0,63,0.00,,,0.00,,2013-09-23 16:24:00,
2013-09-23 12:33:00,77.0,63.0,30.07,ESE,114,0.0,9.0,63,0.00,,,0.00,,2013-09-23 16:33:00,
2013-09-23 12:53:00,77.0,63.0,30.07,ESE,114,0.0,9.0,63,0.00,,,0.00,,2013-09-23 16:53:00,
2013-09-23 13:24:00,77.0,62.0,30.07,East,86,2.0,5.0,60,0.00,,,0.00,,2013-09-23 17:24:00,
2013-09-23 13:34:00,77.0,62.0,30.07,East,86,2.0,5.0,60,0.00,,,0.00,,2013-09-23 17:34:00,
2013-09-23 13:42:00,77.0,62.0,30.07,East,86,2.0,5.0,60,0.00,,,0.00,,2013-09-23 17:42:00,
2013-09-23 13:52:00,80.0,62.0,30.07,ESE,111,0.0,4.0,54,0.00,,,0.00,,2013-09-23 17:52:00,
2013-09-23 14:02:00,80.0,62.0,30.07,ESE,111,0.0,4.0,54,0.00,,,0.00,,2013-09-23 18:02:00,
2013-09-23 14:13:00,80.0,62.0,30.07,ESE,111,0.0,4.0,54,0.00,,,0.00,,2013-09-23 18:13:00,
2013-09-23 14:22:00,78.0,61.0,30.06,SE,130,0.0,4.0,56,0.00,,,0.00,,2013-09-23 18:22:00,
2013-09-23 14:33:00,78.0,61.0,30.06,SE,130,0.0,4.0,56,0.00,,,0.00,,2013-09-23 18:33:00,
2013-09-23 14:52:00,78.0,61.0,30.05,East,86,1.0,5.0,56,0.00,,,0.00,,2013-09-23 18:52:00,
2013-09-23 15:02:00,78.0,61.0,30.05,East,86,1.0,5.0,56,0.00,,,0.00,,2013-09-23 19:02:00,
2013-09-23 15:12:00,78.0,61.0,30.05,East,86,1.0,5.0,56,0.00,,,0.00,,2013-09-23 19:12:00,
2013-09-23 15:33:00,78.0,61.0,30.04,East,86,1.0,4.0,55,0.00,,,0.00,,2013-09-23 19:33:00,
2013-09-23 15:53:00,78.0,60.0,30.03,East,80,0.0,3.0,54,0.00,,,0.00,,2013-09-23 19:53:00,
2013-09-23 16:03:00,78.0,60.0,30.03,East,80,0.0,3.0,54,0.00,,,0.00,,2013-09-23 20:03:00,
2013-09-23 16:12:00,78.0,60.0,30.03,East,80,0.0,3.0,54,0.00,,,0.00,,2013-09-23 20:12:00,
2013-09-23 16:22:00,77.0,60.0,30.03,East,98,1.0,8.0,56,0.00,,,0.00,,2013-09-23 20:22:00,
2013-09-23 16:32:00,77.0,60.0,30.03,East,98,1.0,8.0,56,0.00,,,0.00,,2013-09-23 20:32:00,
2013-09-23 16:52:00,77.0,61.0,30.03,East,81,0.0,2.0,58,0.00,,,0.00,,2013-09-23 20:52:00,
2013-09-23 17:02:00,77.0,61.0,30.03,East,81,0.0,2.0,58,0.00,,,0.00,,2013-09-23 21:02:00,
2013-09-23 17:12:00,77.0,61.0,30.03,East,81,0.0,2.0,58,0.00,,,0.00,,2013-09-23 21:12:00,
2013-09-23 17:23:00,76.0,60.0,30.03,ESE,117,0.0,4.0,58,0.00,,,0.00,,2013-09-23 21:23:00,
2013-09-23 17:34:00,76.0,60.0,30.03,ESE,117,0.0,4.0,58,0.00,,,0.00,,2013-09-23 21:34:00,
2013-09-23 17:44:00,76.0,60.0,30.03,ESE,117,0.0,4.0,58,0.00,,,0.00,,2013-09-23 21:44:00,
2013-09-23 17:54:00,76.0,62.0,30.03,ESE,111,0.0,1.0,61,0.00,,,0.00,,2013-09-23 21:54:00,
2013-09-23 18:04:00,76.0,62.0,30.03,ESE,111,0.0,1.0,61,0.00,,,0.00,,2013-09-23 22:04:00,
2013-09-23 18:14:00,76.0,62.0,30.03,ESE,111,0.0,1.0,61,0.00,,,0.00,,2013-09-23 22:14:00,
2013-09-23 18:24:00,75.0,61.0,30.03,East,91,0.0,2.0,62,0.00,,,0.00,,2013-09-23 22:24:00,
2013-09-23 18:33:00,75.0,61.0,30.03,East,91,0.0,2.0,62,0.00,,,0.00,,2013-09-23 22:33:00,
2013-09-23 18:54:00,75.0,62.0,30.04,East,99,0.0,1.0,63,0.00,,,0.00,,2013-09-23 22:54:00,
2013-09-23 19:03:00,75.0,62.0,30.04,East,99,0.0,1.0,63,0.00,,,0.00,,2013-09-23 23:03:00,
2013-09-23 19:12:00,75.0,62.0,30.04,East,99,0.0,1.0,63,0.00,,,0.00,,2013-09-23 23:12:00,
2013-09-23 19:22:00,74.0,61.0,30.04,SE,126,0.0,0.0,65,0.00,,,0.00,,2013-09-23 23:22:00,
2013-09-23 19:34:00,74.0,61.0,30.04,SE,126,0.0,0.0,65,0.00,,,0.00,,2013-09-23 23:34:00,
2013-09-23 19:54:00,72.0,62.0,30.05,SE,126,0.0,1.0,70,0.00,,,0.00,,2013-09-23 23:54:00,
2013-09-23 20:01:00,72.0,62.0,30.05,SE,126,0.0,1.0,70,0.00,,,0.00,,2013-09-24 00:01:00,
2013-09-23 20:12:00,72.0,62.0,30.05,SE,126,0.0,1.0,70,0.00,,,0.00,,2013-09-24 00:12:00,
2013-09-23 20:22:00,70.0,61.0,30.05,SE,126,0.0,1.0,73,0.00,,,0.00,,2013-09-24 00:22:00,
2013-09-23 20:32:00,70.0,61.0,30.05,SE,126,0.0,1.0,73,0.00,,,0.00,,2013-09-24 00:32:00,
2013-09-23 20:43:00,70.0,61.0,30.05,SE,126,0.0,1.0,73,0.00,,,0.00,,2013-09-24 00:43:00,
2013-09-23 20:52:00,69.0,62.0,30.05,SE,126,0.0,0.0,78,0.00,,,0.00,,2013-09-24 00:52:00,
2013-09-23 21:02:00,69.0,62.0,30.05,SE,126,0.0,0.0,78,0.00,,,0.00,,2013-09-24 01:02:00,
2013-09-23 21:12:00,69.0,62.0,30.05,SE,126,0.0,0.0,78,0.00,,,0.00,,2013-09-24 01:12:00,
2013-09-23 21:22:00,68.0,61.0,30.05,SE,126,0.0,1.0,79,0.00,,,0.00,,2013-09-24 01:22:00,
2013-09-23 21:32:00,68.0,61.0,30.05,SE,126,0.0,1.0,79,0.00,,,0.00,,2013-09-24 01:32:00,
2013-09-23 21:43:00,68.0,61.0,30.05,SE,126,0.0,1.0,79,0.00,,,0.00,,2013-09-24 01:43:00,
2013-09-23 21:52:00,68.0,61.0,30.05,SE,126,0.0,1.0,79,0.00,,,0.00,,2013-09-24 01:52:00,
2013-09-23 22:02:00,68.0,61.0,30.05,SE,126,0.0,1.0,79,0.00,,,0.00,,2013-09-24 02:02:00,
2013-09-23 22:23:00,67.0,61.0,30.07,SE,144,0.0,1.0,82,0.00,,,0.00,,2013-09-24 02:23:00,
2013-09-23 22:32:00,67.0,61.0,30.07,SE,144,0.0,1.0,82,0.00,,,0.00,,2013-09-24 02:32:00,
2013-09-23 22:33:00,67.0,61.0,30.08,SE,124,0.0,3.0,82,0.00,,,0.00,,2013-09-24 02:33:00,
2013-09-23 22:42:00,67.0,61.0,30.07,SE,144,0.0,1.0,82,0.00,,,0.00,,2013-09-24 02:42:00,
2013-09-23 22:52:00,67.0,61.0,30.08,SE,124,0.0,3.0,82,0.00,,,0.00,,2013-09-24 02:52:00,
2013-09-23 23:03:00,67.0,61.0,30.08,SE,124,0.0,3.0,82,0.00,,,0.00,,2013-09-24 03:03:00,
2013-09-23 23:12:00,67.0,61.0,30.08,SE,124,0.0,3.0,82,0.00,,,0.00,,2013-09-24 03:12:00,
2013-09-23 23:22:00,67.0,61.0,30.08,SE,124,0.0,3.0,82,0.00,,,0.00,,2013-09-24 03:22:00,
2013-09-23 23:55:00,66.0,61.0,30.09,ESE,111,0.0,1.0,83,0.00,,,0.00,,2013-09-24 03:55:00,